• Join FlightAware (Why Join?)
  • Login
  • US Flag 
07:05PM EDT


 

Airport Tracker/Info


-or-


 

Live Flight TrackerFlight Track Log ✈ AWE3921 ✈ 18-Apr-2013 ✈ KROC - KDCA

Flight Track Log - Related Links

Times and Time Zones

All times are in EDT time to prevent confusion due to time zone crossing. See the AWE3921 flight status page for this flight to view local times or setup timezone preferences in your user account.

Time Position Orientation Groundspeed Altitude Reporting Facility
EDT Latitude Longitude Course Direction KTS MPH feet Rate Location/Type
11:53AM 43.1014 -77.6942 180° South 153 176 1,200  Level Cleveland Center
11:54AM 43.0689 -77.7269 216° Southwest 168 193 3,100 1,620 Climbing Cleveland Center
11:55AM 43.0150 -77.7381 189° South 189 217 4,400 1,560 Climbing Cleveland Center
11:56AM 42.8268 -77.7185 192° South  Level FlightAware Approximate
11:56AM 42.9461 -77.7356 178° South 221 254 6,500  Level Cleveland Center
11:57AM 42.7307 -77.7460 192° South  Level FlightAware Approximate
11:57AM 42.8753 -77.7358 180° South 244 281 8,200  Level Cleveland Center
11:58AM 42.6347 -77.7746 192° South  Level FlightAware Approximate
11:58AM 42.8047 -77.7419 184° South 255 293 10,100  Level Cleveland Center
11:59AM 42.5385 -77.8000 180° South  Level FlightAware Approximate
11:59AM 42.7281 -77.7622 191° South 266 306 11,600  Level Cleveland Center
12:00PM 42.6367 -77.7833 190° South 283 326 13,600 1,860 Climbing Cleveland Center
12:01PM 42.5561 -77.8067 192° South 306 352 15,400 1,560 Climbing Cleveland Center
12:02PM 42.4753 -77.8272 191° South 318 366 16,800 1,500 Climbing Cleveland Center
12:03PM 42.3861 -77.8506 191° South 324 373 18,500 1,500 Climbing Cleveland Center
12:04PM 42.2950 -77.8742 191° South 330 380 19,900 1,260 Climbing Cleveland Center
12:05PM 42.2039 -77.8978 191° South 335 386 21,100 1,140 Climbing Cleveland Center
12:06PM 42.1106 -77.9214 191° South 335 386 22,200 1,020 Climbing Cleveland Center
12:07PM 42.0153 -77.9447 190° South 345 397 23,200 1,020 Climbing Cleveland Center
12:08PM 41.9075 -77.9744 192° South 356 410 24,300 900 Climbing Cleveland Center
12:09PM 41.8100 -77.9950 189° South 361 415 25,000 360 Climbing Cleveland Center
12:10PM 41.7506 -78.0111 191° South 355 409 25,000  Level New York Center
12:11PM 41.6617 -78.0347 191° South 349 402 25,000  Level New York Center
12:12PM 41.5667 -78.0578 190° South 349 402 25,000  Level New York Center
12:13PM 41.4714 -78.0808 190° South 344 396 25,000  Level New York Center
12:14PM 41.3678 -78.1028 189° South 344 396 25,000  Level New York Center
12:15PM 41.2747 -78.1283 192° South 344 396 25,000  Level New York Center
12:16PM 41.1792 -78.1236 178° South 344 396 25,000  Level New York Center
12:17PM 41.0842 -78.0747 159° South 346 398 25,000  Level New York Center
12:18PM 40.9908 -78.0317 161° South 353 406 25,000  Level New York Center
12:19PM 40.9008 -77.9728 154° Southeast 358 412 25,000  Level New York Center
12:20PM 40.8244 -77.8878 140° Southeast 358 412 25,000 -720 Level New York Center
12:21PM 40.7425 -77.7972 140° Southeast 363 418 23,700 -1,440 Descending New York Center
12:22PM 40.6528 -77.7250 149° Southeast 369 425 22,200 -1,500 Descending New York Center
12:23PM 40.5589 -77.6553 151° Southeast 374 430 20,700 -1,500 Descending New York Center
12:24PM 40.4708 -77.5919 151° Southeast 379 436 19,200 -1,380 Descending New York Center
12:25PM 40.3867 -77.5319 151° Southeast 379 436 18,000 -660 Descending New York Center
12:26PM 40.2928 -77.4628 151° Southeast 360 414 18,000  Level New York Center
12:27PM 40.2147 -77.4064 151° Southeast 355 409 18,000  Level New York Center
12:28PM 40.1206 -77.3375 151° Southeast 360 414 18,000  Level New York Center
12:29PM 40.0472 -77.2683 144° Southeast 360 414 18,000  Level New York Center
12:30PM 39.9742 -77.1558 130° Southeast 360 414 18,000  Level New York Center
12:31PM 39.9064 -77.0550 131° Southeast 366 421 18,000  Level New York Center
12:32PM 39.8408 -76.9569 131° Southeast 366 421 18,000  Level New York Center
12:33PM 39.7667 -76.8667 137° Southeast 368 423 18,000 -420 Level Potomac TRACON
12:34PM 39.6833 -76.8333 163° South 363 418 17,300 -1,800 Descending Potomac TRACON
12:35PM 39.5833 -76.8000 166° South 351 404 14,600 -2,640 Descending Potomac TRACON
12:36PM 39.5000 -76.7667 163° South 332 382 12,100 -1,320 Descending Potomac TRACON
12:37PM 39.4167 -76.7333 163° South 317 365 12,000 -60 Descending Potomac TRACON
12:38PM 39.3333 -76.7167 171° South 323 372 12,000 -480 Level Potomac TRACON
12:39PM 39.2500 -76.6833 163° South 325 374 11,200 -1,020 Descending Potomac TRACON
12:40PM 39.1667 -76.6667 171° South 290 334 10,000 -600 Descending Potomac TRACON
12:41PM 39.1167 -76.7333 226° Southwest 266 306 10,000  Level Potomac TRACON
12:42PM 39.0500 -76.8000 218° Southwest 265 305 10,000 -540 Level Potomac TRACON
12:43PM 39.0000 -76.8667 226° Southwest 261 300 9,000 -1,440 Descending Potomac TRACON
12:44PM 38.9667 -76.9333 237° Southwest 266 306 7,200 -1,140 Descending Potomac TRACON
12:45PM 38.9833 -77.0167 284° West 208 239 6,800 -780 Descending Potomac TRACON
12:46PM 39.0167 -77.0833 303° West 216 249 5,700 -1,200 Descending Potomac TRACON
12:47PM 39.0500 -77.1333 311° West 218 251 4,600 -1,200 Descending Potomac TRACON
12:48PM 39.0167 -77.1833 229° Southwest 184 212 3,300 -1,200 Descending Potomac TRACON